createdAt,value
2018-11-01T00:00:22.462Z,8.59
2018-11-01T00:02:51.799Z,8.58
2018-11-01T00:05:21.188Z,8.53
2018-11-01T00:07:50.563Z,8.47
2018-11-01T00:10:19.983Z,8.43
2018-11-01T00:12:49.871Z,8.40
2018-11-01T00:15:19.214Z,8.37
2018-11-01T00:17:48.580Z,8.36
2018-11-01T00:20:17.905Z,8.37
2018-11-01T00:22:47.275Z,8.40
2018-11-01T00:25:16.618Z,8.44
2018-11-01T00:27:45.998Z,8.48
2018-11-01T00:30:15.335Z,8.54
2018-11-01T00:32:44.677Z,8.60
2018-11-01T00:35:13.995Z,8.67
2018-11-01T00:37:43.337Z,8.76
2018-11-01T00:40:15.319Z,8.82
2018-11-01T00:42:45.153Z,8.88
2018-11-01T00:45:14.674Z,8.92
2018-11-01T00:47:44.054Z,8.97
2018-11-01T00:50:14.636Z,8.97
2018-11-01T00:52:44.549Z,9.04
2018-11-01T00:55:14.448Z,9.06
2018-11-01T00:57:44.094Z,9.11
2018-11-01T01:00:15.204Z,9.13
2018-11-01T01:02:44.555Z,9.13
2018-11-01T01:05:13.925Z,9.17
2018-11-01T01:08:13.906Z,9.16
2018-11-01T01:10:44.456Z,9.10
2018-11-01T01:13:13.807Z,9.11
2018-11-01T01:15:43.118Z,9.10
2018-11-01T01:18:12.419Z,9.07
2018-11-01T01:20:41.749Z,9.07
2018-11-01T01:23:11.168Z,9.05
2018-11-01T01:25:40.505Z,9.05
2018-11-01T01:28:10.735Z,9.02
2018-11-01T01:30:40.143Z,8.98
2018-11-01T01:33:09.525Z,8.94
2018-11-01T01:35:38.877Z,8.88
2018-11-01T01:38:08.217Z,8.82
2018-11-01T01:40:37.582Z,8.76
2018-11-01T01:43:06.930Z,8.70
2018-11-01T01:45:36.286Z,8.65
2018-11-01T01:48:07.034Z,8.61
2018-11-01T01:50:36.416Z,8.59
2018-11-01T01:53:06.025Z,8.56
2018-11-01T01:55:35.442Z,8.58
2018-11-01T01:58:06.070Z,8.60
2018-11-01T02:00:35.481Z,8.60
2018-11-01T02:08:07.114Z,8.40
2018-11-01T02:10:36.515Z,8.43
2018-11-01T02:13:06.903Z,8.45
2018-11-01T02:15:36.295Z,8.47
2018-11-01T02:18:06.445Z,8.48
2018-11-01T02:20:35.794Z,8.50
2018-11-01T02:23:06.655Z,8.49
2018-11-01T02:25:35.997Z,8.49
2018-11-01T02:28:14.912Z,8.46
2018-11-01T02:30:44.261Z,8.46
2018-11-01T02:33:13.570Z,8.43
2018-11-01T02:35:42.927Z,8.40
2018-11-01T02:38:12.409Z,8.39
2018-11-01T02:40:41.620Z,8.35
2018-11-01T02:43:11.035Z,8.35
2018-11-01T02:45:40.646Z,8.34
2018-11-01T02:48:10.216Z,8.33
2018-11-01T02:50:39.619Z,8.30
2018-11-01T02:53:09.074Z,8.27
2018-11-01T02:55:38.487Z,8.25
2018-11-01T02:58:08.128Z,8.23
2018-11-01T03:00:37.523Z,8.19
2018-11-01T03:03:06.942Z,8.18
2018-11-01T03:05:36.369Z,8.13
2018-11-01T03:08:06.381Z,8.09
2018-11-01T03:10:35.790Z,8.06
2018-11-01T03:13:06.488Z,8.06
2018-11-01T03:15:36.059Z,8.06
2018-11-01T03:18:06.996Z,8.09
2018-11-01T03:20:36.366Z,8.14
2018-11-01T03:23:10.639Z,8.20
2018-11-01T03:25:40.206Z,8.25
2018-11-01T03:28:09.629Z,8.29
2018-11-01T03:30:39.039Z,8.32
2018-11-01T03:33:08.563Z,8.36
2018-11-01T03:35:38.080Z,8.38
2018-11-01T03:38:07.624Z,8.38
2018-11-01T03:40:37.214Z,8.36
2018-11-01T03:43:06.775Z,8.33
2018-11-01T03:45:36.408Z,8.30
2018-11-01T03:48:06.784Z,8.23
2018-11-01T03:50:37.047Z,8.20
2018-11-01T03:53:06.620Z,8.15
2018-11-01T03:55:36.101Z,8.12
2018-11-01T03:58:06.762Z,8.12
2018-11-01T04:00:36.184Z,8.13
2018-11-01T04:03:06.427Z,8.17
2018-11-01T04:05:36.005Z,8.22
2018-11-01T04:08:06.653Z,8.45
2018-11-01T04:10:36.203Z,8.45
2018-11-01T04:13:06.676Z,8.46
2018-11-01T04:15:36.273Z,8.49
2018-11-01T04:18:06.334Z,8.53
2018-11-01T04:20:35.847Z,8.55
2018-11-01T04:23:06.411Z,8.60
2018-11-01T04:25:37.040Z,8.62
2018-11-01T04:28:06.582Z,8.64
2018-11-01T04:30:36.112Z,8.67
2018-11-01T04:33:06.663Z,8.68
2018-11-01T04:35:36.181Z,8.71
2018-11-01T04:38:06.790Z,8.72
2018-11-01T04:40:36.187Z,8.74
2018-11-01T04:43:07.034Z,8.75
2018-11-01T04:45:36.371Z,8.77
2018-11-01T04:48:06.218Z,8.80
2018-11-01T04:50:35.545Z,8.81
2018-11-01T04:53:06.334Z,8.82
2018-11-01T04:55:35.877Z,8.84
2018-11-01T04:58:06.486Z,8.85
2018-11-01T05:00:35.797Z,8.88
2018-11-01T05:03:06.568Z,8.91
2018-11-01T05:05:35.954Z,8.96
2018-11-01T05:08:06.188Z,9.00
2018-11-01T05:10:35.506Z,9.03
2018-11-01T05:13:06.071Z,9.06
2018-11-01T05:15:35.429Z,9.09
2018-11-01T05:18:06.171Z,9.11
2018-11-01T05:20:35.523Z,9.13
2018-11-01T05:23:06.201Z,9.15
2018-11-01T05:25:35.653Z,9.14
2018-11-01T05:28:04.983Z,9.13
2018-11-01T05:30:34.373Z,9.11
2018-11-01T05:33:03.755Z,9.09
2018-11-01T05:35:33.068Z,9.05
2018-11-01T05:38:02.426Z,9.01
2018-11-01T05:40:31.741Z,8.96
2018-11-01T05:43:01.126Z,8.93
2018-11-01T05:45:30.475Z,8.88
2018-11-01T05:47:59.800Z,8.85
2018-11-01T05:50:29.183Z,8.80
2018-11-01T05:52:58.539Z,8.76
2018-11-01T05:55:28.948Z,8.71
2018-11-01T05:57:58.334Z,8.66
2018-11-01T06:00:27.661Z,8.78
2018-11-01T06:02:57.035Z,8.69
2018-11-01T06:05:26.370Z,8.60
2018-11-01T06:07:58.466Z,8.52
2018-11-01T06:10:28.062Z,8.47
2018-11-01T06:12:57.403Z,8.44
2018-11-01T06:15:26.734Z,8.42
2018-11-01T06:17:56.932Z,8.39
2018-11-01T06:21:10.553Z,8.35
2018-11-01T06:23:39.947Z,8.27
2018-11-01T06:26:09.305Z,8.28
2018-11-01T06:28:38.675Z,8.31
2018-11-01T06:31:08.027Z,8.38
2018-11-01T06:33:37.506Z,8.43
2018-11-01T06:36:08.762Z,8.50
2018-11-01T06:38:38.134Z,8.54
2018-11-01T06:41:07.514Z,8.60
2018-11-01T06:43:36.846Z,8.63
2018-11-01T06:46:06.343Z,8.62
2018-11-01T06:48:35.661Z,8.61
2018-11-01T06:51:06.986Z,8.61
2018-11-01T06:53:36.329Z,8.60
2018-11-01T06:56:06.399Z,8.59
2018-11-01T06:58:35.834Z,8.59
2018-11-01T07:01:06.821Z,8.61
2018-11-01T07:03:36.155Z,8.63
2018-11-01T07:06:06.672Z,8.67
2018-11-01T07:08:36.987Z,8.68
2018-11-01T07:11:06.724Z,8.73
2018-11-01T07:13:36.261Z,8.75
2018-11-01T07:16:06.699Z,8.79
2018-11-01T07:18:36.047Z,8.83
2018-11-01T07:21:06.491Z,8.89
2018-11-01T07:23:41.696Z,8.95
2018-11-01T07:26:11.237Z,9.02
2018-11-01T07:28:40.443Z,9.10
2018-11-01T07:31:09.819Z,9.16
2018-11-01T07:33:39.166Z,9.19
2018-11-01T07:36:08.502Z,9.22
2018-11-01T07:38:38.484Z,9.24
2018-11-01T07:41:07.879Z,9.24
2018-11-01T07:43:37.243Z,9.26
2018-11-01T07:46:06.924Z,9.26
2018-11-01T07:48:36.375Z,9.27
2018-11-01T07:51:06.270Z,9.29
2018-11-01T07:53:36.634Z,9.31
2018-11-01T07:56:06.880Z,9.36
2018-11-01T08:01:11.108Z,9.51
2018-11-01T08:03:40.516Z,9.57
2018-11-01T08:06:09.913Z,9.64
2018-11-01T08:08:39.218Z,9.69
2018-11-01T08:11:08.566Z,9.74
2018-11-01T08:13:37.947Z,9.77
2018-11-01T08:16:08.936Z,9.81
2018-11-01T08:18:38.470Z,9.87
2018-11-01T08:21:08.119Z,9.90
2018-11-01T08:23:37.360Z,9.94
2018-11-01T08:26:06.785Z,9.97
2018-11-01T08:28:36.173Z,9.99
2018-11-01T08:31:06.510Z,10.02
2018-11-01T08:33:35.953Z,10.06
2018-11-01T08:36:06.023Z,10.09
2018-11-01T08:38:36.035Z,10.12
2018-11-01T08:41:06.363Z,10.14
2018-11-01T08:43:35.868Z,10.16
2018-11-01T08:46:06.873Z,10.19
2018-11-01T08:48:36.335Z,10.23
2018-11-01T08:51:05.967Z,10.29
2018-11-01T08:53:38.371Z,10.35
2018-11-01T08:56:07.939Z,10.38
2018-11-01T08:58:38.744Z,10.46
2018-11-01T09:01:08.144Z,10.51
2018-11-01T09:03:37.531Z,10.58
2018-11-01T09:06:06.966Z,10.68
2018-11-01T09:08:36.375Z,10.76
2018-11-01T09:11:06.343Z,10.86
2018-11-01T09:13:35.754Z,10.94
2018-11-01T09:16:07.311Z,11.06
2018-11-01T09:18:36.782Z,11.19
2018-11-01T09:21:06.641Z,11.32
2018-11-01T09:23:36.091Z,11.45
2018-11-01T09:26:06.106Z,11.60
2018-11-01T09:28:35.475Z,11.72
2018-11-01T09:31:06.122Z,11.83
2018-11-01T09:33:35.519Z,11.94
2018-11-01T09:36:06.040Z,12.04
2018-11-01T09:38:35.486Z,12.15
2018-11-01T09:41:05.498Z,12.24
2018-11-01T09:43:34.915Z,12.33
2018-11-01T09:46:04.459Z,12.38
2018-11-01T09:48:33.827Z,12.43
2018-11-01T09:51:03.266Z,12.48
2018-11-01T09:53:32.682Z,12.54
2018-11-01T09:56:02.144Z,12.61
2018-11-01T09:58:31.646Z,12.64
2018-11-01T10:01:01.106Z,12.67
2018-11-01T10:03:30.555Z,12.71
2018-11-01T10:05:59.962Z,12.76
2018-11-01T10:08:30.429Z,12.81
2018-11-01T10:10:59.929Z,12.85
2018-11-01T10:13:29.411Z,12.90
2018-11-01T10:15:59.031Z,12.92
2018-11-01T10:18:28.615Z,12.97
2018-11-01T10:20:57.710Z,13.03
2018-11-01T10:23:27.086Z,13.10
2018-11-01T10:25:56.504Z,13.20
2018-11-01T10:28:25.935Z,13.30
2018-11-01T10:30:55.311Z,13.37
2018-11-01T10:33:24.688Z,13.42
2018-11-01T10:35:54.109Z,13.48
2018-11-01T10:38:24.647Z,13.56
2018-11-01T10:40:54.760Z,13.64
2018-11-01T10:43:24.104Z,13.67
2018-11-01T10:45:53.447Z,13.74
2018-11-01T10:48:23.742Z,13.81
2018-11-01T10:50:53.139Z,13.88
2018-11-01T10:53:22.565Z,13.98
2018-11-01T10:55:51.971Z,14.08
2018-11-01T10:58:21.311Z,14.17
2018-11-01T11:00:56.035Z,14.27
2018-11-01T11:03:25.315Z,14.34
2018-11-01T11:05:55.373Z,14.42
2018-11-01T11:08:24.783Z,14.50
2018-11-01T11:10:54.192Z,14.61
2018-11-01T11:13:23.511Z,14.69
2018-11-01T11:15:53.047Z,14.76
2018-11-01T11:18:22.375Z,14.82
2018-11-01T11:20:52.008Z,14.87
2018-11-01T11:23:21.084Z,14.88
2018-11-01T11:25:50.445Z,14.92
2018-11-01T11:28:19.775Z,14.95
2018-11-01T11:30:49.242Z,15.04
2018-11-01T11:33:18.596Z,15.07
2018-11-01T11:35:48.823Z,15.11
2018-11-01T11:38:18.191Z,15.12
2018-11-01T11:40:47.541Z,15.14
2018-11-01T11:43:16.921Z,15.15
2018-11-01T11:45:46.238Z,15.17
2018-11-01T11:48:15.587Z,15.19
2018-11-01T11:50:44.975Z,15.20
2018-11-01T11:53:14.397Z,15.20
2018-11-01T11:55:43.825Z,15.20
2018-11-01T11:58:13.221Z,15.19
2018-11-01T12:00:42.622Z,15.15
2018-11-01T12:03:12.902Z,15.08
2018-11-01T12:05:42.305Z,15.05
2018-11-01T12:08:11.615Z,15.01
2018-11-01T12:10:40.956Z,14.96
2018-11-01T12:13:10.274Z,14.91
2018-11-01T12:15:39.672Z,14.80
2018-11-01T12:18:09.016Z,14.65
2018-11-01T12:20:38.452Z,14.52
2018-11-01T12:23:07.409Z,14.41
2018-11-01T12:25:36.775Z,14.29
2018-11-01T12:28:13.115Z,14.24
2018-11-01T12:30:42.461Z,14.18
2018-11-01T12:33:11.814Z,14.13
2018-11-01T12:35:41.235Z,14.06
2018-11-01T12:38:10.545Z,13.97
2018-11-01T12:40:39.885Z,13.92
2018-11-01T12:43:09.231Z,13.85
2018-11-01T12:45:38.579Z,13.78
2018-11-01T12:48:07.943Z,13.73
2018-11-01T12:50:37.297Z,13.72
2018-11-01T12:53:06.632Z,13.74
2018-11-01T12:55:35.966Z,13.75
2018-11-01T12:58:06.287Z,13.76
2018-11-01T13:00:35.735Z,13.76
2018-11-01T13:03:06.274Z,13.76
2018-11-01T13:05:35.615Z,13.77
2018-11-01T13:08:06.503Z,13.78
2018-11-01T13:10:35.863Z,13.79
2018-11-01T13:13:06.398Z,13.81
2018-11-01T13:15:35.756Z,13.77
2018-11-01T13:18:06.469Z,13.75
2018-11-01T13:20:35.737Z,13.78
2018-11-01T13:23:06.295Z,13.80
2018-11-01T13:25:35.653Z,13.81
2018-11-01T13:28:06.291Z,13.79
2018-11-01T13:30:35.606Z,13.75
2018-11-01T13:33:06.223Z,13.70
2018-11-01T13:35:35.743Z,13.67
2018-11-01T13:38:06.400Z,13.64
2018-11-01T13:40:36.130Z,13.63
2018-11-01T13:43:06.364Z,13.63
2018-11-01T13:45:35.751Z,13.64
2018-11-01T13:48:06.633Z,13.66
2018-11-01T13:50:35.775Z,13.60
2018-11-01T13:53:06.514Z,13.54
2018-11-01T13:55:35.906Z,13.49
2018-11-01T13:58:06.391Z,13.44
2018-11-01T14:00:35.722Z,13.38
2018-11-01T14:03:06.569Z,13.33
2018-11-01T14:05:35.916Z,13.30
2018-11-01T14:08:06.235Z,13.27
2018-11-01T14:10:35.544Z,13.21
2018-11-01T14:13:06.249Z,13.30
2018-11-01T14:15:35.600Z,13.23
2018-11-01T14:18:06.455Z,13.19
2018-11-01T14:20:35.815Z,13.15
2018-11-01T14:23:06.662Z,13.10
2018-11-01T14:25:36.115Z,13.05
2018-11-01T14:28:06.253Z,13.03
2018-11-01T14:30:35.584Z,13.00
2018-11-01T14:33:05.030Z,12.99
2018-11-01T14:35:34.350Z,12.97
2018-11-01T14:38:03.849Z,12.96
2018-11-01T14:40:33.014Z,12.95
2018-11-01T14:43:02.390Z,12.93
2018-11-01T14:45:31.722Z,12.90
2018-11-01T14:48:01.106Z,12.90
2018-11-01T14:50:30.430Z,12.88
2018-11-01T14:53:00.748Z,12.86
2018-11-01T14:55:30.367Z,12.84
2018-11-01T14:58:00.091Z,12.82
2018-11-01T15:00:27.912Z,12.79
2018-11-01T15:02:57.337Z,12.77
2018-11-01T15:05:26.664Z,12.72
2018-11-01T15:07:56.043Z,12.69
2018-11-01T15:10:25.327Z,12.68
2018-11-01T15:12:54.759Z,12.66
2018-11-01T15:15:24.005Z,12.62
2018-11-01T15:17:53.365Z,12.59
2018-11-01T15:20:22.731Z,12.54
2018-11-01T15:22:52.144Z,12.53
2018-11-01T15:25:21.488Z,12.50
2018-11-01T15:27:50.844Z,12.46
2018-11-01T15:30:20.226Z,12.44
2018-11-01T15:32:49.611Z,12.39
2018-11-01T15:35:18.970Z,12.35
2018-11-01T15:37:48.299Z,12.30
2018-11-01T15:40:17.637Z,12.26
2018-11-01T15:42:46.985Z,12.24
2018-11-01T15:45:16.356Z,12.20
2018-11-01T15:47:45.685Z,12.18
2018-11-01T15:50:15.395Z,12.15
2018-11-01T15:52:45.005Z,12.11
2018-11-01T15:55:14.385Z,12.09
2018-11-01T15:57:43.784Z,12.05
2018-11-01T16:00:14.254Z,12.02
2018-11-01T16:02:44.677Z,11.97
2018-11-01T16:05:14.747Z,11.90
2018-11-01T16:07:44.339Z,11.86
2018-11-01T16:10:14.052Z,11.81
2018-11-01T16:12:43.251Z,11.75
2018-11-01T16:15:13.847Z,11.72
2018-11-01T16:17:43.217Z,11.68
2018-11-01T16:21:15.770Z,11.64
2018-11-01T16:23:45.170Z,11.55
2018-11-01T16:26:14.572Z,11.53
2018-11-01T16:28:45.349Z,11.51
2018-11-01T16:31:15.962Z,11.46
2018-11-01T16:33:45.324Z,11.42
2018-11-01T16:36:14.989Z,11.39
2018-11-01T16:38:44.351Z,11.35
2018-11-01T16:41:14.232Z,11.32
2018-11-01T16:43:43.583Z,11.28
2018-11-01T16:46:13.022Z,11.25
2018-11-01T16:48:42.563Z,11.22
2018-11-01T16:51:12.114Z,11.20
2018-11-01T16:53:41.503Z,11.16
2018-11-01T16:56:10.831Z,11.11
2018-11-01T16:58:41.450Z,11.12
2018-11-01T17:01:10.797Z,11.10
2018-11-01T17:03:40.224Z,11.09
2018-11-01T17:06:09.859Z,11.06
2018-11-01T17:08:39.597Z,11.08
2018-11-01T17:11:09.050Z,11.10
2018-11-01T17:13:38.553Z,11.09
2018-11-01T17:16:08.404Z,11.08
2018-11-01T17:18:37.967Z,11.08
2018-11-01T17:21:07.589Z,11.05
2018-11-01T17:23:37.186Z,11.06
2018-11-01T17:26:06.728Z,11.06
2018-11-01T17:28:36.198Z,11.05
2018-11-01T17:31:06.494Z,11.05
2018-11-01T17:33:36.019Z,11.07
2018-11-01T17:36:06.517Z,11.04
2018-11-01T17:38:36.046Z,11.06
2018-11-01T17:41:06.657Z,11.06
2018-11-01T17:43:36.216Z,11.06
2018-11-01T17:46:06.315Z,11.06
2018-11-01T17:48:35.799Z,11.09
2018-11-01T17:53:35.674Z,11.09
2018-11-01T17:56:07.329Z,11.08
2018-11-01T17:58:36.791Z,11.06
2018-11-01T18:01:06.721Z,11.05
2018-11-01T18:03:36.116Z,11.04
2018-11-01T18:06:06.552Z,11.02
2018-11-01T18:08:36.148Z,11.03
2018-11-01T18:11:06.284Z,11.03
2018-11-01T18:13:35.679Z,11.02
2018-11-01T18:16:06.145Z,11.01
2018-11-01T18:18:35.538Z,11.01
2018-11-01T18:21:06.221Z,11.01
2018-11-01T18:23:35.695Z,11.02
2018-11-01T18:26:06.339Z,11.01
2018-11-01T18:28:35.707Z,10.99
2018-11-01T18:31:06.464Z,11.00
2018-11-01T18:33:35.836Z,11.00
2018-11-01T18:36:06.489Z,11.01
2018-11-01T18:38:35.871Z,11.00
2018-11-01T18:41:06.419Z,10.98
2018-11-01T18:44:06.593Z,10.98
2018-11-01T18:46:36.258Z,10.95
2018-11-01T18:49:06.358Z,10.95
2018-11-01T18:51:35.756Z,10.96
2018-11-01T18:54:06.763Z,10.95
2018-11-01T18:56:36.019Z,10.95
2018-11-01T18:59:06.225Z,10.95
2018-11-01T19:01:35.618Z,10.95
2018-11-01T19:04:06.415Z,10.94
2018-11-01T19:06:35.836Z,10.93
2018-11-01T19:09:09.390Z,10.92
2018-11-01T19:11:38.790Z,10.89
2018-11-01T19:14:12.387Z,10.89
2018-11-01T19:16:41.819Z,10.88
2018-11-01T19:19:11.205Z,10.87
2018-11-01T19:21:40.557Z,10.84
2018-11-01T19:24:09.857Z,10.85
2018-11-01T19:26:42.063Z,10.84
2018-11-01T19:29:12.482Z,10.85
2018-11-01T19:31:41.858Z,10.86
2018-11-01T19:34:11.337Z,10.87
2018-11-01T19:36:40.635Z,10.87
2018-11-01T19:39:13.195Z,10.87
2018-11-01T19:41:42.723Z,10.86
2018-11-01T19:44:12.080Z,10.85
2018-11-01T19:46:41.487Z,10.86
2018-11-01T19:49:10.853Z,10.87
2018-11-01T19:51:40.258Z,10.87
2018-11-01T19:54:09.637Z,10.87
2018-11-01T19:56:38.990Z,10.86
2018-11-01T19:59:11.085Z,10.87
2018-11-01T20:01:40.512Z,10.88
2018-11-01T20:04:09.925Z,10.88
2018-11-01T20:06:39.243Z,10.87
2018-11-01T20:09:09.536Z,10.86
2018-11-01T20:11:39.407Z,10.85
2018-11-01T20:14:09.567Z,10.84
2018-11-01T20:16:39.174Z,10.84
2018-11-01T20:19:08.862Z,10.84
2018-11-01T20:21:38.482Z,10.85
2018-11-01T20:24:07.982Z,10.87
2018-11-01T20:26:37.577Z,10.86
2018-11-01T20:29:08.261Z,10.92
2018-11-01T20:31:37.850Z,10.93
2018-11-01T20:34:07.550Z,10.94
2018-11-01T20:36:37.147Z,10.96
2018-11-01T20:39:10.902Z,10.99
2018-11-01T20:41:40.909Z,11.00
2018-11-01T20:44:11.093Z,11.00
2018-11-01T20:46:40.735Z,11.02
2018-11-01T20:49:10.302Z,11.01
2018-11-01T20:51:39.919Z,11.00
2018-11-01T20:54:09.527Z,11.03
2018-11-01T20:56:39.117Z,11.03
2018-11-01T20:59:08.631Z,11.06
2018-11-01T21:01:38.314Z,11.06
2018-11-01T21:04:12.705Z,11.08
2018-11-01T21:06:42.267Z,11.06
2018-11-01T21:09:12.497Z,11.06
2018-11-01T21:11:42.189Z,11.08
2018-11-01T21:14:11.604Z,11.09
2018-11-01T21:16:41.375Z,11.09
2018-11-01T21:19:11.722Z,11.10
2018-11-01T21:21:41.352Z,11.08
2018-11-01T21:24:11.295Z,11.04
2018-11-01T21:26:40.803Z,10.99
2018-11-01T21:29:10.281Z,10.94
2018-11-01T21:31:39.671Z,10.86
2018-11-01T21:34:09.277Z,10.87
2018-11-01T21:36:38.778Z,10.87
2018-11-01T21:39:08.794Z,10.86
2018-11-01T21:41:38.201Z,10.87
2018-11-01T21:44:07.814Z,10.88
2018-11-01T21:46:37.380Z,10.89
2018-11-01T21:49:07.106Z,10.89
2018-11-01T21:51:36.751Z,10.88
2018-11-01T21:54:06.820Z,10.87
2018-11-01T21:56:36.287Z,10.85
2018-11-01T21:59:06.179Z,10.86
2018-11-01T22:01:35.816Z,10.93
2018-11-01T22:04:06.550Z,10.90
2018-11-01T22:06:36.188Z,10.89
2018-11-01T22:09:08.427Z,10.89
2018-11-01T22:11:38.092Z,10.86
2018-11-01T22:14:08.002Z,10.87
2018-11-01T22:16:37.523Z,10.88
2018-11-01T22:19:07.127Z,10.89
2018-11-01T22:21:38.254Z,10.89
2018-11-01T22:24:07.983Z,10.86
2018-11-01T22:26:37.629Z,11.01
2018-11-01T22:29:07.183Z,10.97
2018-11-01T22:31:36.683Z,10.95
2018-11-01T22:34:06.600Z,10.94
2018-11-01T22:36:36.191Z,10.96
2018-11-01T22:39:08.560Z,10.98
2018-11-01T22:41:38.234Z,11.00
2018-11-01T22:44:07.743Z,11.01
2018-11-01T22:46:37.238Z,11.02
2018-11-01T22:49:06.814Z,11.02
2018-11-01T22:51:36.305Z,11.02
2018-11-01T22:54:06.489Z,11.01
2018-11-01T22:56:35.850Z,11.00
2018-11-01T22:59:06.430Z,11.00
2018-11-01T23:01:35.789Z,10.99
2018-11-01T23:04:06.758Z,10.96
2018-11-01T23:06:36.080Z,10.95
2018-11-01T23:09:08.382Z,10.92
2018-11-01T23:11:38.076Z,10.86
2018-11-01T23:14:07.507Z,10.77
2018-11-01T23:16:37.113Z,10.70
2018-11-01T23:19:06.591Z,10.64
2018-11-01T23:21:35.918Z,10.62
2018-11-01T23:24:06.539Z,10.58
2018-11-01T23:26:35.885Z,10.56
2018-11-01T23:29:06.519Z,10.55
2018-11-01T23:31:35.879Z,10.57
2018-11-01T23:34:05.947Z,10.64
2018-11-01T23:36:40.493Z,10.73
2018-11-01T23:39:15.536Z,10.78
2018-11-01T23:41:50.065Z,10.82
2018-11-01T23:44:24.745Z,10.87
2018-11-01T23:46:59.097Z,10.89
2018-11-01T23:49:29.223Z,10.92
2018-11-01T23:52:01.596Z,10.95
2018-11-01T23:54:30.995Z,10.95
2018-11-01T23:57:00.356Z,11.00
2018-11-01T23:59:29.730Z,11.02
